createdAt,value
2023-03-06T00:00:05.355Z,3.58
2023-03-06T00:00:44.805Z,3.58
2023-03-06T00:01:18.496Z,3.58
2023-03-06T00:01:50.726Z,3.61
2023-03-06T00:02:22.460Z,3.61
2023-03-06T00:02:54.119Z,3.57
2023-03-06T00:03:28.088Z,3.62
2023-03-06T00:03:59.914Z,3.60
2023-03-06T00:04:31.549Z,3.61
2023-03-06T00:05:03.547Z,3.60
2023-03-06T00:05:35.315Z,3.60
2023-03-06T00:06:07.492Z,3.61
2023-03-06T00:06:39.236Z,3.65
2023-03-06T00:07:10.853Z,3.64
2023-03-06T00:07:43.446Z,3.65
2023-03-06T00:08:15.528Z,3.67
2023-03-06T00:08:47.217Z,3.65
2023-03-06T00:09:18.865Z,3.67
2023-03-06T00:09:50.552Z,3.69
2023-03-06T00:10:25.164Z,3.71
2023-03-06T00:10:57.756Z,3.69
2023-03-06T00:11:29.398Z,3.67
2023-03-06T00:12:01.070Z,3.68
2023-03-06T00:12:32.737Z,3.69
2023-03-06T00:13:08.249Z,3.69
2023-03-06T00:13:39.896Z,3.70
2023-03-06T00:14:11.581Z,3.68
2023-03-06T00:14:43.387Z,3.68
2023-03-06T00:15:15.035Z,3.68
2023-03-06T00:15:47.844Z,3.68
2023-03-06T00:16:19.483Z,3.67
2023-03-06T00:16:55.945Z,3.68
2023-03-06T00:17:28.840Z,3.70
2023-03-06T00:18:02.673Z,3.68
2023-03-06T00:18:34.683Z,3.66
2023-03-06T00:19:06.310Z,3.65
2023-03-06T00:19:37.946Z,3.65
2023-03-06T00:20:11.942Z,3.62
2023-03-06T00:20:45.024Z,3.60
2023-03-06T00:21:16.687Z,3.60
2023-03-06T00:21:48.397Z,3.56
2023-03-06T00:22:20.092Z,3.58
2023-03-06T00:22:51.756Z,3.57
2023-03-06T00:23:23.401Z,3.59
2023-03-06T00:23:55.085Z,3.60
2023-03-06T00:24:26.759Z,3.58
2023-03-06T00:24:58.591Z,3.58
2023-03-06T00:25:30.651Z,3.58
2023-03-06T00:26:02.519Z,3.59
2023-03-06T00:26:35.678Z,3.63
2023-03-06T00:27:07.355Z,3.62
2023-03-06T00:27:39.098Z,3.60
2023-03-06T00:28:12.293Z,3.59
2023-03-06T00:28:44.275Z,3.59
2023-03-06T00:29:15.909Z,3.57
2023-03-06T00:29:49.783Z,3.57
2023-03-06T00:30:23.425Z,3.57
2023-03-06T00:30:55.077Z,3.59
2023-03-06T00:31:26.743Z,3.57
2023-03-06T00:31:58.437Z,3.59
2023-03-06T00:32:30.098Z,3.59
2023-03-06T00:33:01.801Z,3.62
2023-03-06T00:33:33.457Z,3.63
2023-03-06T00:34:05.139Z,3.64
2023-03-06T00:34:36.825Z,3.63
2023-03-06T00:35:08.799Z,3.65
2023-03-06T00:35:41.617Z,3.67
2023-03-06T00:36:13.280Z,3.66
2023-03-06T00:36:44.980Z,3.65
2023-03-06T00:37:16.635Z,3.63
2023-03-06T00:37:48.344Z,3.62
2023-03-06T00:38:20.105Z,3.62
2023-03-06T00:38:51.775Z,3.64
2023-03-06T00:39:23.623Z,3.62
2023-03-06T00:39:55.448Z,3.60
2023-03-06T00:40:27.470Z,3.60
2023-03-06T00:40:59.836Z,3.64
2023-03-06T00:41:31.492Z,3.65
2023-03-06T00:42:03.133Z,3.65
2023-03-06T00:42:34.859Z,3.61
2023-03-06T00:43:06.554Z,3.62
2023-03-06T00:43:38.533Z,3.62
2023-03-06T00:44:10.189Z,3.60
2023-03-06T00:44:42.137Z,3.61
2023-03-06T00:45:14.497Z,3.62
2023-03-06T00:45:46.179Z,3.63
2023-03-06T00:46:17.884Z,3.64
2023-03-06T00:46:49.573Z,3.63
2023-03-06T00:47:21.364Z,3.61
2023-03-06T00:47:53.035Z,3.62
2023-03-06T00:48:24.721Z,3.64
2023-03-06T00:48:56.453Z,3.66
2023-03-06T00:49:28.089Z,3.65
2023-03-06T00:49:59.765Z,3.66
2023-03-06T00:50:31.396Z,3.69
2023-03-06T00:51:03.083Z,3.70
2023-03-06T00:51:34.792Z,3.70
2023-03-06T00:52:06.475Z,3.66
2023-03-06T00:52:38.408Z,3.63
2023-03-06T00:53:11.125Z,3.65
2023-03-06T00:53:42.848Z,3.65
2023-03-06T00:54:14.699Z,3.64
2023-03-06T00:54:46.377Z,3.64
2023-03-06T00:55:18.107Z,3.67
2023-03-06T00:55:50.797Z,3.63
2023-03-06T00:56:22.505Z,3.66
2023-03-06T00:56:54.185Z,3.68
2023-03-06T00:57:25.993Z,3.64
2023-03-06T00:57:57.676Z,3.66
2023-03-06T00:58:29.345Z,3.67
2023-03-06T00:59:01.002Z,3.66
2023-03-06T00:59:32.641Z,3.68
2023-03-06T01:00:06.210Z,3.66
2023-03-06T01:00:38.483Z,3.66
2023-03-06T01:01:10.217Z,3.67
2023-03-06T01:01:42.119Z,3.66
2023-03-06T01:02:13.873Z,3.66
2023-03-06T01:02:45.572Z,3.68
2023-03-06T01:03:17.291Z,3.67
2023-03-06T01:03:48.979Z,3.65
2023-03-06T01:04:21.120Z,3.65
2023-03-06T01:04:52.747Z,3.66
2023-03-06T01:05:24.898Z,3.69
2023-03-06T01:05:56.704Z,3.67
2023-03-06T01:06:28.386Z,3.69
2023-03-06T01:07:00.033Z,3.68
2023-03-06T01:07:34.068Z,3.69
2023-03-06T01:08:06.742Z,3.68
2023-03-06T01:08:38.527Z,3.69
2023-03-06T01:09:10.265Z,3.68
2023-03-06T01:09:41.920Z,3.66
2023-03-06T01:10:13.689Z,3.69
2023-03-06T01:10:45.357Z,3.67
2023-03-06T01:11:17.021Z,3.69
2023-03-06T01:11:48.664Z,3.67
2023-03-06T01:12:22.841Z,3.68
2023-03-06T01:12:55.283Z,3.64
2023-03-06T01:13:27.016Z,3.64
2023-03-06T01:13:58.665Z,3.62
2023-03-06T01:14:31.490Z,3.65
2023-03-06T01:15:04.507Z,3.65
2023-03-06T01:15:36.555Z,3.65
2023-03-06T01:16:13.786Z,3.64
2023-03-06T01:16:46.732Z,3.64
2023-03-06T01:17:18.418Z,3.67
2023-03-06T01:17:56.586Z,3.67
2023-03-06T01:18:28.212Z,3.68
2023-03-06T01:19:00.016Z,3.67
2023-03-06T01:19:31.689Z,3.63
2023-03-06T01:20:04.269Z,3.66
2023-03-06T01:20:35.908Z,3.66
2023-03-06T01:21:07.924Z,3.70
2023-03-06T01:21:39.904Z,3.69
2023-03-06T01:22:11.584Z,3.67
2023-03-06T01:22:43.502Z,3.68
2023-03-06T01:23:15.173Z,3.67
2023-03-06T01:23:47.497Z,3.69
2023-03-06T01:24:19.123Z,3.70
2023-03-06T01:24:50.758Z,3.71
2023-03-06T01:25:25.177Z,3.73
2023-03-06T01:25:57.200Z,3.75
2023-03-06T01:26:28.902Z,3.74
2023-03-06T01:27:00.556Z,3.73
2023-03-06T01:27:32.441Z,3.75
2023-03-06T01:28:04.182Z,3.77
2023-03-06T01:28:37.782Z,3.78
2023-03-06T01:29:09.780Z,3.78
2023-03-06T01:29:41.638Z,3.77
2023-03-06T01:30:13.675Z,3.78
2023-03-06T01:30:45.299Z,3.74
2023-03-06T01:31:16.990Z,3.71
2023-03-06T01:31:48.735Z,3.70
2023-03-06T01:32:21.488Z,3.74
2023-03-06T01:32:53.200Z,3.76
2023-03-06T01:33:24.935Z,3.81
2023-03-06T01:33:56.647Z,3.81
2023-03-06T01:34:28.331Z,3.82
2023-03-06T01:34:59.996Z,3.82
2023-03-06T01:35:31.707Z,3.81
2023-03-06T01:36:07.132Z,3.83
2023-03-06T01:36:38.907Z,3.76
2023-03-06T01:37:10.596Z,3.77
2023-03-06T01:37:42.537Z,3.78
2023-03-06T01:38:14.769Z,3.78
2023-03-06T01:38:46.413Z,3.82
2023-03-06T01:39:18.085Z,3.83
2023-03-06T01:39:49.985Z,3.81
2023-03-06T01:40:21.810Z,3.79
2023-03-06T01:40:53.478Z,3.81
2023-03-06T01:41:25.140Z,3.82
2023-03-06T01:41:56.798Z,3.78
2023-03-06T01:42:28.477Z,3.76
2023-03-06T01:43:09.650Z,3.73
2023-03-06T01:43:44.215Z,3.75
2023-03-06T01:44:15.883Z,3.72
2023-03-06T01:45:03.524Z,3.71
2023-03-06T01:45:35.197Z,3.73
2023-03-06T01:46:24.903Z,3.76
2023-03-06T01:46:56.617Z,3.76
2023-03-06T01:47:28.637Z,3.79
2023-03-06T01:48:00.285Z,3.78
2023-03-06T01:48:31.930Z,3.79
2023-03-06T01:49:06.556Z,3.80
2023-03-06T01:49:41.187Z,3.81
2023-03-06T01:50:13.228Z,3.83
2023-03-06T01:50:45.048Z,3.82
2023-03-06T01:51:17.367Z,3.84
2023-03-06T01:52:04.697Z,3.86
2023-03-06T01:52:45.500Z,3.86
2023-03-06T01:53:18.611Z,3.85
2023-03-06T01:53:52.390Z,3.86
2023-03-06T01:54:39.352Z,3.88
2023-03-06T01:55:18.122Z,3.89
2023-03-06T01:55:50.161Z,3.88
2023-03-06T01:56:23.591Z,3.89
2023-03-06T01:57:02.276Z,3.90
2023-03-06T01:57:38.531Z,3.87
2023-03-06T01:58:16.015Z,3.87
2023-03-06T01:58:49.641Z,3.87
2023-03-06T01:59:23.861Z,3.84
2023-03-06T02:00:20.739Z,3.88
2023-03-06T02:00:52.772Z,3.91
2023-03-06T02:01:24.701Z,3.95
2023-03-06T02:02:01.689Z,3.94
2023-03-06T02:02:33.652Z,3.93
2023-03-06T02:03:14.925Z,3.94
2023-03-06T02:03:49.912Z,3.92
2023-03-06T02:04:21.796Z,3.90
2023-03-06T02:04:53.419Z,3.88
2023-03-06T02:05:25.270Z,3.89
2023-03-06T02:05:59.342Z,3.88
2023-03-06T02:06:31.010Z,3.91
2023-03-06T02:07:06.528Z,3.93
2023-03-06T02:07:38.755Z,3.94
2023-03-06T02:08:13.940Z,3.95
2023-03-06T02:08:48.955Z,3.96
2023-03-06T02:09:20.765Z,3.95
2023-03-06T02:09:52.472Z,3.96
2023-03-06T02:10:24.459Z,3.97
2023-03-06T02:11:15.614Z,3.98
2023-03-06T02:11:47.506Z,4.00
2023-03-06T02:12:21.904Z,4.00
2023-03-06T02:12:53.670Z,4.02
2023-03-06T02:13:25.431Z,4.06
2023-03-06T02:13:57.682Z,4.03
2023-03-06T02:14:30.189Z,4.02
2023-03-06T02:15:02.342Z,4.00
2023-03-06T02:15:34.021Z,4.02
2023-03-06T02:16:06.737Z,4.06
2023-03-06T02:16:39.078Z,4.08
2023-03-06T02:17:13.894Z,4.09
2023-03-06T02:17:47.598Z,4.09
2023-03-06T02:18:19.257Z,4.12
2023-03-06T02:18:51.579Z,4.15
2023-03-06T02:19:46.272Z,4.14
2023-03-06T02:20:20.948Z,4.11
2023-03-06T02:20:59.500Z,4.10
2023-03-06T02:21:35.552Z,4.11
2023-03-06T02:22:07.323Z,4.11
2023-03-06T02:23:05.953Z,4.15
2023-03-06T02:24:03.596Z,4.14
2023-03-06T02:24:45.788Z,4.16
2023-03-06T02:25:40.963Z,4.19
2023-03-06T02:26:13.649Z,4.18
2023-03-06T02:26:47.665Z,4.16
2023-03-06T02:27:19.965Z,4.15
2023-03-06T02:27:51.648Z,4.14
2023-03-06T02:28:24.090Z,4.16
2023-03-06T02:28:57.588Z,4.16
2023-03-06T02:29:30.336Z,4.11
2023-03-06T02:30:06.821Z,4.13
2023-03-06T02:30:40.098Z,4.11
2023-03-06T02:31:28.076Z,4.09
2023-03-06T02:31:59.854Z,4.10
2023-03-06T02:32:31.523Z,4.13
2023-03-06T02:33:03.572Z,4.14
2023-03-06T02:33:35.228Z,4.16
2023-03-06T02:34:15.831Z,4.17
2023-03-06T02:34:56.052Z,4.21
2023-03-06T02:35:31.350Z,4.21
2023-03-06T02:36:06.406Z,4.20
2023-03-06T02:36:45.540Z,4.19
2023-03-06T02:37:17.356Z,4.21
2023-03-06T02:37:49.962Z,4.17
2023-03-06T02:38:27.746Z,4.15
2023-03-06T02:39:00.038Z,4.11
2023-03-06T02:39:38.005Z,4.15
2023-03-06T02:40:13.475Z,4.14
2023-03-06T02:40:49.664Z,4.16
2023-03-06T02:41:21.309Z,4.16
2023-03-06T02:41:53.015Z,4.17
2023-03-06T02:42:26.637Z,4.17
2023-03-06T02:42:59.737Z,4.17
2023-03-06T02:43:35.848Z,4.19
2023-03-06T02:44:07.742Z,4.16
2023-03-06T02:44:39.413Z,4.18
2023-03-06T02:45:15.107Z,4.21
2023-03-06T02:45:50.119Z,4.21
2023-03-06T02:46:21.814Z,4.19
2023-03-06T02:46:53.532Z,4.16
2023-03-06T02:47:25.251Z,4.19
2023-03-06T02:47:56.912Z,4.22
2023-03-06T02:48:28.610Z,4.18
2023-03-06T02:49:00.262Z,4.19
2023-03-06T02:49:31.887Z,4.21
2023-03-06T02:50:03.756Z,4.21
2023-03-06T02:50:35.444Z,4.20
2023-03-06T02:51:07.087Z,4.20
2023-03-06T02:51:38.724Z,4.19
2023-03-06T02:52:10.393Z,4.22
2023-03-06T02:52:42.025Z,4.24
2023-03-06T02:53:16.433Z,4.23
2023-03-06T02:53:48.112Z,4.22
2023-03-06T02:54:19.888Z,4.26
2023-03-06T02:54:51.593Z,4.27
2023-03-06T02:55:23.453Z,4.27
2023-03-06T02:55:55.129Z,4.25
2023-03-06T02:56:26.902Z,4.28
2023-03-06T02:56:58.559Z,4.28
2023-03-06T02:57:30.254Z,4.31
2023-03-06T02:58:02.419Z,4.29
2023-03-06T02:58:34.135Z,4.28
2023-03-06T02:59:05.791Z,4.29
2023-03-06T02:59:37.458Z,4.31
2023-03-06T03:00:10.398Z,4.32
2023-03-06T03:00:42.318Z,4.32
2023-03-06T03:01:13.991Z,4.34
2023-03-06T03:01:47.769Z,4.35
2023-03-06T03:02:19.551Z,4.33
2023-03-06T03:02:51.745Z,4.32
2023-03-06T03:03:23.401Z,4.35
2023-03-06T03:03:55.066Z,4.36
2023-03-06T03:04:27.950Z,4.36
2023-03-06T03:04:59.651Z,4.37
2023-03-06T03:05:31.960Z,4.39
2023-03-06T03:06:05.831Z,4.39
2023-03-06T03:06:37.627Z,4.40
2023-03-06T03:07:09.298Z,4.37
2023-03-06T03:07:41.122Z,4.39
2023-03-06T03:08:13.004Z,4.39
2023-03-06T03:08:44.825Z,4.40
2023-03-06T03:09:16.656Z,4.41
2023-03-06T03:09:48.402Z,4.40
2023-03-06T03:10:20.201Z,4.38
2023-03-06T03:10:52.130Z,4.41
2023-03-06T03:11:23.787Z,4.41
2023-03-06T03:11:55.681Z,4.42
2023-03-06T03:12:28.732Z,4.42
2023-03-06T03:13:00.466Z,4.40
2023-03-06T03:13:32.901Z,4.41
2023-03-06T03:14:04.508Z,4.42
2023-03-06T03:14:36.166Z,4.42
2023-03-06T03:15:09.011Z,4.41
2023-03-06T03:15:41.281Z,4.41
2023-03-06T03:16:15.545Z,4.39
2023-03-06T03:16:47.405Z,4.40
2023-03-06T03:17:19.048Z,4.41
2023-03-06T03:17:50.733Z,4.38
2023-03-06T03:18:22.358Z,4.40
2023-03-06T03:18:54.069Z,4.39
2023-03-06T03:19:26.013Z,4.40
2023-03-06T03:19:57.795Z,4.37
2023-03-06T03:20:29.446Z,4.41
2023-03-06T03:21:01.562Z,4.40
2023-03-06T03:21:33.221Z,4.42
2023-03-06T03:22:05.030Z,4.46
2023-03-06T03:22:36.748Z,4.45
2023-03-06T03:23:08.401Z,4.48
2023-03-06T03:23:40.731Z,4.47
2023-03-06T03:24:12.395Z,4.48
2023-03-06T03:24:44.321Z,4.49
2023-03-06T03:25:17.315Z,4.49
2023-03-06T03:25:49.040Z,4.49
2023-03-06T03:26:21.933Z,4.50
2023-03-06T03:26:53.617Z,4.48
2023-03-06T03:27:25.312Z,4.45
2023-03-06T03:27:56.966Z,4.45
2023-03-06T03:28:28.736Z,4.39
2023-03-06T03:29:00.432Z,4.42
2023-03-06T03:29:32.707Z,4.40
2023-03-06T03:30:05.000Z,4.39
2023-03-06T03:30:36.644Z,4.35
2023-03-06T03:31:10.238Z,4.38
2023-03-06T03:31:42.023Z,4.40
2023-03-06T03:32:13.691Z,4.40
2023-03-06T03:32:45.523Z,4.39
2023-03-06T03:33:17.171Z,4.41
2023-03-06T03:33:49.069Z,4.41
2023-03-06T03:34:21.690Z,4.44
2023-03-06T03:34:55.469Z,4.47
2023-03-06T03:35:27.189Z,4.47
2023-03-06T03:36:00.959Z,4.49
2023-03-06T03:36:32.599Z,4.46
2023-03-06T03:37:04.668Z,4.43
2023-03-06T03:37:36.538Z,4.43
2023-03-06T03:38:08.266Z,4.43
2023-03-06T03:38:40.132Z,4.47
2023-03-06T03:39:11.912Z,4.43
2023-03-06T03:39:43.653Z,4.45
2023-03-06T03:40:15.295Z,4.45
2023-03-06T03:40:46.951Z,4.44
2023-03-06T03:41:18.770Z,4.42
2023-03-06T03:41:50.422Z,4.42
2023-03-06T03:42:22.374Z,4.41
2023-03-06T03:42:54.035Z,4.42
2023-03-06T03:43:25.695Z,4.47
2023-03-06T03:43:57.324Z,4.45
2023-03-06T03:44:28.991Z,4.43
2023-03-06T03:45:00.634Z,4.41
2023-03-06T03:45:32.289Z,4.42
2023-03-06T03:46:04.410Z,4.47
2023-03-06T03:46:36.519Z,4.42
2023-03-06T03:47:08.227Z,4.43
2023-03-06T03:47:40.518Z,4.41
2023-03-06T03:48:12.352Z,4.44
2023-03-06T03:48:44.153Z,4.40
2023-03-06T03:49:15.908Z,4.42
2023-03-06T03:49:47.671Z,4.42
2023-03-06T03:50:19.518Z,4.40
2023-03-06T03:50:51.249Z,4.40
2023-03-06T03:51:23.205Z,4.42
2023-03-06T03:51:54.848Z,4.42
2023-03-06T03:52:26.505Z,4.43
2023-03-06T03:52:58.124Z,4.41
2023-03-06T03:53:29.768Z,4.41
2023-03-06T03:54:01.386Z,4.40
2023-03-06T03:54:33.041Z,4.41
2023-03-06T03:55:05.570Z,4.38
2023-03-06T03:55:37.428Z,4.38
2023-03-06T03:56:09.110Z,4.37
2023-03-06T03:56:41.758Z,4.35
2023-03-06T03:57:13.413Z,4.36
2023-03-06T03:57:45.081Z,4.38
2023-03-06T03:58:16.791Z,4.38
2023-03-06T03:58:48.619Z,4.35
2023-03-06T03:59:20.969Z,4.35
2023-03-06T03:59:52.790Z,4.33
2023-03-06T04:00:24.515Z,4.35
2023-03-06T04:00:56.256Z,4.30
2023-03-06T04:01:28.129Z,4.30
2023-03-06T04:02:00.119Z,4.27
2023-03-06T04:02:31.814Z,4.27
2023-03-06T04:03:03.547Z,4.27
2023-03-06T04:03:35.379Z,4.27
2023-03-06T04:04:07.286Z,4.26
2023-03-06T04:04:38.972Z,4.28
2023-03-06T04:05:15.518Z,4.26
2023-03-06T04:05:47.305Z,4.28
2023-03-06T04:06:19.611Z,4.27
2023-03-06T04:06:51.465Z,4.26
2023-03-06T04:07:23.085Z,4.27
2023-03-06T04:07:54.770Z,4.27
2023-03-06T04:08:27.093Z,4.25
2023-03-06T04:08:58.926Z,4.27
2023-03-06T04:09:49.267Z,4.20
2023-03-06T04:10:21.056Z,4.18
2023-03-06T04:10:54.306Z,4.20
2023-03-06T04:11:26.014Z,4.20
2023-03-06T04:11:57.672Z,4.17
2023-03-06T04:12:29.341Z,4.17
2023-03-06T04:13:01.116Z,4.20
2023-03-06T04:13:33.179Z,4.22
2023-03-06T04:14:04.890Z,4.21
2023-03-06T04:14:36.602Z,4.19
2023-03-06T04:15:09.106Z,4.18
2023-03-06T04:15:40.744Z,4.18
2023-03-06T04:16:12.489Z,4.19
2023-03-06T04:16:44.260Z,4.22
2023-03-06T04:17:15.923Z,4.21
2023-03-06T04:17:47.761Z,4.19
2023-03-06T04:18:20.806Z,4.19
2023-03-06T04:18:52.448Z,4.18
2023-03-06T04:19:24.336Z,4.18
2023-03-06T04:19:56.003Z,4.17
2023-03-06T04:20:28.247Z,4.14
2023-03-06T04:20:59.884Z,4.17
2023-03-06T04:21:31.573Z,4.16
2023-03-06T04:22:03.237Z,4.14
2023-03-06T04:22:34.887Z,4.16
2023-03-06T04:23:06.519Z,4.18
2023-03-06T04:23:38.231Z,4.12
2023-03-06T04:24:09.876Z,4.10
2023-03-06T04:24:41.531Z,4.12
2023-03-06T04:25:13.289Z,4.13
2023-03-06T04:25:46.328Z,4.12
2023-03-06T04:26:18.040Z,4.13
2023-03-06T04:26:49.693Z,4.12
2023-03-06T04:27:21.350Z,4.14
2023-03-06T04:27:52.983Z,4.13
2023-03-06T04:28:24.993Z,4.13
2023-03-06T04:28:56.696Z,4.13
2023-03-06T04:29:28.401Z,4.10
2023-03-06T04:30:00.158Z,4.11
2023-03-06T04:30:31.908Z,4.12
2023-03-06T04:31:03.732Z,4.13
2023-03-06T04:31:35.429Z,4.13
2023-03-06T04:32:07.313Z,4.17
2023-03-06T04:32:39.048Z,4.17
2023-03-06T04:33:10.704Z,4.15
2023-03-06T04:33:42.328Z,4.17
2023-03-06T04:34:13.973Z,4.16
2023-03-06T04:34:45.617Z,4.16
2023-03-06T04:35:17.448Z,4.17
2023-03-06T04:35:49.224Z,4.17
2023-03-06T04:36:45.160Z,4.16
2023-03-06T04:37:21.532Z,4.14
2023-03-06T04:37:53.264Z,4.14
2023-03-06T04:38:24.917Z,4.11
2023-03-06T04:38:57.014Z,4.09
2023-03-06T04:39:28.706Z,4.08
2023-03-06T04:40:00.361Z,4.09
2023-03-06T04:40:34.700Z,4.10
2023-03-06T04:41:06.429Z,4.11
2023-03-06T04:41:38.948Z,4.09
2023-03-06T04:42:10.733Z,4.09
2023-03-06T04:42:42.353Z,4.07
2023-03-06T04:43:14.091Z,4.08
2023-03-06T04:43:46.324Z,4.09
2023-03-06T04:44:18.011Z,4.08
2023-03-06T04:44:49.639Z,4.03
2023-03-06T04:45:21.385Z,4.05
2023-03-06T04:45:53.108Z,4.04
2023-03-06T04:46:24.770Z,4.05
2023-03-06T04:46:56.421Z,4.08
2023-03-06T04:47:28.305Z,4.07
2023-03-06T04:48:00.630Z,4.07
2023-03-06T04:48:32.424Z,4.05
2023-03-06T04:49:04.258Z,4.05
2023-03-06T04:49:36.152Z,4.06
2023-03-06T04:50:09.035Z,4.06
2023-03-06T04:50:40.921Z,4.07
2023-03-06T04:51:13.652Z,4.04
2023-03-06T04:51:45.267Z,4.04
2023-03-06T04:52:16.871Z,4.04
2023-03-06T04:52:48.690Z,4.02
2023-03-06T04:53:21.364Z,4.01
2023-03-06T04:53:53.033Z,4.04
2023-03-06T04:54:24.776Z,4.03
2023-03-06T04:54:56.424Z,4.04
2023-03-06T04:55:28.898Z,4.04
2023-03-06T04:56:00.545Z,4.05
2023-03-06T04:56:32.223Z,4.06
2023-03-06T04:57:04.880Z,4.05
2023-03-06T04:57:41.231Z,4.04
2023-03-06T04:58:14.963Z,4.04
2023-03-06T04:58:46.629Z,4.02
2023-03-06T04:59:18.347Z,4.03
2023-03-06T04:59:50.693Z,4.06
2023-03-06T05:00:25.237Z,4.06
2023-03-06T05:00:56.931Z,4.04
2023-03-06T05:01:28.600Z,4.03
2023-03-06T05:02:00.287Z,4.06
2023-03-06T05:02:33.411Z,4.04
2023-03-06T05:03:05.124Z,4.03
2023-03-06T05:03:36.787Z,4.02
2023-03-06T05:04:08.474Z,4.01
2023-03-06T05:04:40.139Z,4.02
2023-03-06T05:05:13.701Z,4.00
2023-03-06T05:05:45.335Z,4.00
2023-03-06T05:06:17.080Z,4.02
2023-03-06T05:06:48.700Z,4.03
2023-03-06T05:07:20.358Z,4.02
2023-03-06T05:07:52.682Z,3.98
2023-03-06T05:08:24.388Z,3.94
2023-03-06T05:08:56.058Z,3.93
2023-03-06T05:09:27.742Z,3.95
2023-03-06T05:10:00.501Z,3.98
2023-03-06T05:10:32.209Z,4.00
2023-03-06T05:11:04.078Z,3.99
2023-03-06T05:11:35.774Z,3.97
2023-03-06T05:12:07.669Z,3.98
2023-03-06T05:12:39.560Z,4.00
2023-03-06T05:13:12.372Z,3.97
2023-03-06T05:13:44.161Z,3.90
2023-03-06T05:14:15.797Z,3.92
2023-03-06T05:14:48.157Z,3.89
2023-03-06T05:15:20.233Z,3.87
2023-03-06T05:15:52.234Z,3.89
2023-03-06T05:16:23.935Z,3.93
2023-03-06T05:16:55.646Z,3.95
2023-03-06T05:17:27.292Z,3.93
2023-03-06T05:17:59.176Z,3.92
2023-03-06T05:18:31.412Z,3.89
2023-03-06T05:19:03.404Z,3.89
2023-03-06T05:19:35.037Z,3.92
2023-03-06T05:20:09.696Z,3.92
2023-03-06T05:20:41.374Z,3.88
2023-03-06T05:21:13.443Z,3.89
2023-03-06T05:21:45.098Z,3.87
2023-03-06T05:22:16.763Z,3.88
2023-03-06T05:22:48.438Z,3.90
2023-03-06T05:23:20.086Z,3.91
2023-03-06T05:23:51.706Z,3.89
2023-03-06T05:24:23.374Z,3.93
2023-03-06T05:24:55.001Z,3.92
2023-03-06T05:25:26.686Z,3.94
2023-03-06T05:25:58.383Z,3.97
2023-03-06T05:26:30.079Z,3.98
2023-03-06T05:27:01.742Z,3.99
2023-03-06T05:27:34.316Z,3.99
2023-03-06T05:28:06.902Z,3.97
2023-03-06T05:28:39.053Z,3.94
2023-03-06T05:29:10.733Z,3.92
2023-03-06T05:29:42.392Z,3.92
2023-03-06T05:30:14.957Z,3.91
2023-03-06T05:30:46.874Z,3.92
2023-03-06T05:31:18.702Z,3.92
2023-03-06T05:31:50.468Z,3.92
2023-03-06T05:32:22.947Z,3.91
2023-03-06T05:32:54.731Z,3.92
2023-03-06T05:33:26.708Z,3.88
2023-03-06T05:33:59.205Z,3.86
2023-03-06T05:34:31.054Z,3.86
2023-03-06T05:35:03.659Z,3.86
2023-03-06T05:35:35.395Z,3.86
2023-03-06T05:36:09.272Z,3.85
2023-03-06T05:36:41.336Z,3.89
2023-03-06T05:37:13.057Z,3.88
2023-03-06T05:37:44.962Z,3.89
2023-03-06T05:38:16.952Z,3.89
2023-03-06T05:38:48.784Z,3.90
2023-03-06T05:39:20.966Z,3.90
2023-03-06T05:39:52.687Z,3.89
2023-03-06T05:40:24.456Z,3.89
2023-03-06T05:40:56.183Z,3.90
2023-03-06T05:41:27.915Z,3.89
2023-03-06T05:41:59.744Z,3.89
2023-03-06T05:42:31.403Z,3.90
2023-03-06T05:43:03.056Z,3.92
2023-03-06T05:43:34.694Z,3.93
2023-03-06T05:44:06.324Z,3.94
2023-03-06T05:44:38.060Z,3.90
2023-03-06T05:45:10.457Z,4.01
2023-03-06T05:45:42.146Z,4.55
2023-03-06T05:46:14.254Z,4.59
2023-03-06T05:46:45.914Z,4.47
2023-03-06T05:47:17.615Z,4.37
2023-03-06T05:47:49.272Z,4.30
2023-03-06T05:48:20.907Z,4.29
2023-03-06T05:48:55.368Z,4.26
2023-03-06T05:49:31.201Z,4.23
2023-03-06T05:50:05.382Z,4.21
2023-03-06T05:50:37.038Z,4.20
2023-03-06T05:51:10.907Z,4.11
2023-03-06T05:51:42.689Z,4.05
2023-03-06T05:52:15.020Z,4.06
2023-03-06T05:52:46.658Z,4.09
2023-03-06T05:53:18.311Z,4.08
2023-03-06T05:53:50.084Z,4.09
2023-03-06T05:54:21.819Z,4.10
2023-03-06T05:54:54.664Z,4.10
2023-03-06T05:55:26.331Z,4.09
2023-03-06T05:55:57.904Z,4.08
2023-03-06T05:56:29.575Z,4.05
2023-03-06T05:57:01.958Z,4.03
2023-03-06T05:57:33.700Z,4.01
2023-03-06T05:58:05.347Z,4.02
2023-03-06T05:58:37.967Z,4.01
2023-03-06T05:59:09.611Z,4.01
2023-03-06T05:59:41.268Z,3.97
2023-03-06T06:00:14.862Z,3.99
2023-03-06T06:00:46.641Z,4.02
2023-03-06T06:01:20.629Z,4.02
2023-03-06T06:01:52.268Z,4.00
2023-03-06T06:02:23.885Z,4.00
2023-03-06T06:02:55.621Z,4.00
2023-03-06T06:03:27.537Z,3.99
2023-03-06T06:03:59.204Z,4.00
2023-03-06T06:04:30.952Z,4.01
2023-03-06T06:05:03.686Z,4.01
2023-03-06T06:05:39.548Z,4.00
2023-03-06T06:06:14.395Z,4.00
2023-03-06T06:06:46.056Z,3.99
2023-03-06T06:07:17.760Z,3.99
2023-03-06T06:07:49.539Z,4.01
2023-03-06T06:08:21.563Z,4.00
2023-03-06T06:08:53.861Z,4.01
2023-03-06T06:09:26.154Z,4.01
2023-03-06T06:09:57.821Z,4.03
2023-03-06T06:10:29.470Z,4.03
2023-03-06T06:11:01.547Z,4.03
2023-03-06T06:11:33.215Z,4.01
2023-03-06T06:12:05.178Z,4.02
2023-03-06T06:12:36.868Z,4.06
2023-03-06T06:13:08.949Z,4.05
2023-03-06T06:13:41.994Z,4.06
2023-03-06T06:14:14.813Z,4.03
2023-03-06T06:14:46.480Z,4.05
2023-03-06T06:15:18.177Z,4.06
2023-03-06T06:15:49.886Z,4.05
2023-03-06T06:16:21.591Z,4.05
2023-03-06T06:16:53.714Z,4.06
2023-03-06T06:17:25.393Z,4.08
2023-03-06T06:17:57.657Z,4.10
2023-03-06T06:18:29.332Z,4.10
2023-03-06T06:19:01.039Z,4.12
2023-03-06T06:19:32.819Z,4.12
2023-03-06T06:20:04.830Z,4.11
2023-03-06T06:20:37.871Z,4.11
2023-03-06T06:21:11.760Z,4.11
2023-03-06T06:21:43.411Z,4.10
2023-03-06T06:22:15.145Z,4.12
2023-03-06T06:22:46.838Z,4.10
2023-03-06T06:23:18.536Z,4.10
2023-03-06T06:23:50.166Z,4.07
2023-03-06T06:24:24.787Z,4.08
2023-03-06T06:24:56.464Z,4.08
2023-03-06T06:25:28.131Z,4.08
2023-03-06T06:26:07.184Z,4.09
2023-03-06T06:26:39.833Z,4.10
2023-03-06T06:27:11.534Z,4.08
2023-03-06T06:27:43.193Z,4.07
2023-03-06T06:28:14.851Z,4.06
2023-03-06T06:28:46.491Z,4.06
2023-03-06T06:29:18.151Z,4.05
2023-03-06T06:29:52.772Z,4.06
2023-03-06T06:30:24.735Z,4.08
2023-03-06T06:30:56.947Z,4.08
2023-03-06T06:31:28.729Z,4.08
2023-03-06T06:32:01.210Z,4.07
2023-03-06T06:32:33.001Z,4.07
2023-03-06T06:33:04.685Z,4.08
2023-03-06T06:33:36.296Z,4.07
2023-03-06T06:34:09.803Z,4.07
2023-03-06T06:34:41.453Z,4.08
2023-03-06T06:35:13.149Z,4.12
2023-03-06T06:35:44.811Z,4.14
2023-03-06T06:36:21.120Z,4.13
2023-03-06T06:36:54.426Z,4.16
2023-03-06T06:37:26.196Z,4.16
2023-03-06T06:37:57.860Z,4.17
2023-03-06T06:38:29.575Z,4.18
2023-03-06T06:39:01.496Z,4.17
2023-03-06T06:39:33.159Z,4.17
2023-03-06T06:40:05.358Z,4.16
2023-03-06T06:40:37.088Z,4.13
2023-03-06T06:41:38.866Z,4.13
2023-03-06T06:42:25.283Z,4.13
2023-03-06T06:42:53.895Z,4.13
2023-03-06T06:43:25.545Z,4.17
2023-03-06T06:43:59.077Z,4.18
2023-03-06T06:44:30.834Z,4.21
2023-03-06T06:45:05.183Z,4.22
2023-03-06T06:45:37.442Z,4.22
2023-03-06T06:46:31.467Z,4.24
2023-03-06T06:47:22.874Z,4.23
2023-03-06T06:47:52.419Z,4.27
2023-03-06T06:48:24.133Z,4.26
2023-03-06T06:48:55.974Z,4.27
2023-03-06T06:49:27.625Z,4.30
2023-03-06T06:49:59.315Z,4.32
2023-03-06T06:50:30.960Z,4.36
2023-03-06T06:51:02.615Z,4.38
2023-03-06T06:51:34.625Z,5.38
2023-03-06T06:52:07.485Z,6.92
2023-03-06T06:52:39.507Z,7.67
2023-03-06T06:53:11.136Z,7.82
2023-03-06T06:53:43.017Z,7.96
2023-03-06T06:54:14.703Z,8.22
2023-03-06T06:54:46.463Z,8.61
2023-03-06T06:55:18.124Z,8.36
2023-03-06T06:55:50.159Z,7.86
2023-03-06T06:56:21.854Z,7.53
2023-03-06T06:56:53.800Z,7.34
2023-03-06T06:57:25.444Z,7.16
2023-03-06T06:57:57.105Z,7.04
2023-03-06T06:58:28.795Z,6.92
2023-03-06T06:59:15.571Z,6.85
2023-03-06T06:59:47.683Z,6.73
2023-03-06T07:00:20.051Z,6.64
2023-03-06T07:00:51.747Z,6.58
2023-03-06T07:01:23.465Z,6.52
2023-03-06T07:01:55.148Z,6.47
2023-03-06T07:02:26.994Z,6.37
2023-03-06T07:02:58.628Z,6.31
2023-03-06T07:03:30.285Z,6.20
2023-03-06T07:04:02.261Z,6.16
2023-03-06T07:04:34.295Z,6.06
2023-03-06T07:05:06.781Z,6.00
2023-03-06T07:05:38.739Z,5.94
2023-03-06T07:06:10.572Z,5.85
2023-03-06T07:06:42.840Z,5.85
2023-03-06T07:07:14.522Z,5.77
2023-03-06T07:07:46.157Z,5.72
2023-03-06T07:08:17.794Z,5.70
2023-03-06T07:08:49.538Z,5.65
2023-03-06T07:09:22.322Z,5.57
2023-03-06T07:09:54.808Z,5.53
2023-03-06T07:10:26.490Z,5.46
2023-03-06T07:10:59.023Z,5.45
2023-03-06T07:11:30.691Z,5.41
2023-03-06T07:12:02.342Z,5.32
2023-03-06T07:12:35.153Z,5.33
2023-03-06T07:13:06.962Z,5.27
2023-03-06T07:13:38.839Z,5.27
2023-03-06T07:14:10.513Z,5.24
2023-03-06T07:14:42.422Z,5.22
2023-03-06T07:15:15.750Z,5.22
2023-03-06T07:15:47.604Z,5.20